createdAt,value
2023-07-07T00:00:31.374Z,98788.95
2023-07-07T00:03:19.085Z,98795.43
2023-07-07T00:05:46.924Z,98791.39
2023-07-07T00:08:15.063Z,98795.61
2023-07-07T00:10:44.086Z,98793.31
2023-07-07T00:13:12.928Z,98797.34
2023-07-07T00:15:45.429Z,98799.08
2023-07-07T00:18:15.501Z,98800.14
2023-07-07T00:20:43.364Z,98797.16
2023-07-07T00:23:13.588Z,98796.45
2023-07-07T00:25:41.522Z,98801.20
2023-07-07T00:28:09.146Z,98801.71
2023-07-07T00:30:36.803Z,98804.88
2023-07-07T00:33:04.618Z,98806.09
2023-07-07T00:35:32.636Z,98805.56
2023-07-07T00:38:00.268Z,98807.13
2023-07-07T00:40:28.227Z,98809.22
2023-07-07T00:42:56.162Z,98812.91
2023-07-07T00:45:23.763Z,98815.36
2023-07-07T00:47:58.035Z,98810.63
2023-07-07T00:50:28.064Z,98815.71
2023-07-07T00:52:55.716Z,98820.79
2023-07-07T00:55:39.741Z,98819.53
2023-07-07T00:58:09.874Z,98819.69
2023-07-07T01:00:38.564Z,98818.61
2023-07-07T01:03:12.099Z,98818.05
2023-07-07T01:05:40.000Z,98820.12
2023-07-07T01:08:08.820Z,98822.02
2023-07-07T01:10:41.345Z,98819.36
2023-07-07T01:13:09.898Z,98823.75
2023-07-07T01:15:44.410Z,98822.00
2023-07-07T01:18:30.422Z,98819.02
2023-07-07T01:21:13.754Z,98818.82
2023-07-07T01:23:59.689Z,98816.70
2023-07-07T01:26:33.826Z,98820.55
2023-07-07T01:29:16.138Z,98815.08
2023-07-07T01:31:47.212Z,98812.79
2023-07-07T01:34:15.655Z,98812.25
2023-07-07T01:36:43.637Z,98819.10
2023-07-07T01:39:12.646Z,98820.34
2023-07-07T01:41:55.999Z,98818.58
2023-07-07T01:44:43.082Z,98821.20
2023-07-07T01:47:13.236Z,98816.61
2023-07-07T01:50:03.612Z,98815.88
2023-07-07T01:52:37.809Z,98816.73
2023-07-07T01:55:12.736Z,98815.83
2023-07-07T01:57:40.829Z,98815.45
2023-07-07T02:00:08.980Z,98815.45
2023-07-07T02:02:36.708Z,98816.15
2023-07-07T02:05:04.945Z,98812.30
2023-07-07T02:07:32.685Z,98810.38
2023-07-07T02:10:00.386Z,98813.67
2023-07-07T02:12:28.196Z,98814.55
2023-07-07T02:14:55.861Z,98816.79
2023-07-07T02:17:25.847Z,98826.76
2023-07-07T02:19:53.926Z,98827.91
2023-07-07T02:22:21.543Z,98832.08
2023-07-07T02:24:49.198Z,98829.42
2023-07-07T02:27:16.804Z,98832.20
2023-07-07T02:29:44.435Z,98831.98
2023-07-07T02:32:12.076Z,98835.83
2023-07-07T02:34:41.373Z,98835.96
2023-07-07T02:37:14.182Z,98832.79
2023-07-07T02:39:44.066Z,98833.63
2023-07-07T02:42:12.154Z,98837.09
2023-07-07T02:44:39.962Z,98840.23
2023-07-07T02:47:10.478Z,98843.42
2023-07-07T02:49:38.214Z,98843.10
2023-07-07T02:52:06.668Z,98849.76
2023-07-07T02:54:34.429Z,98847.83
2023-07-07T02:57:03.072Z,98848.89
2023-07-07T02:59:30.929Z,98850.11
2023-07-07T03:01:58.850Z,98853.60
2023-07-07T03:04:28.234Z,98854.61
2023-07-07T03:06:55.930Z,98856.54
2023-07-07T03:09:23.699Z,98859.16
2023-07-07T03:11:51.426Z,98853.75
2023-07-07T03:14:19.527Z,98857.27
2023-07-07T03:16:53.706Z,98860.78
2023-07-07T03:19:23.891Z,98863.75
2023-07-07T03:21:54.599Z,98867.94
2023-07-07T03:24:22.297Z,98866.35
2023-07-07T03:26:49.917Z,98866.85
2023-07-07T03:29:17.719Z,98869.33
2023-07-07T03:31:45.329Z,98873.04
2023-07-07T03:34:13.002Z,98872.92
2023-07-07T03:36:40.777Z,98876.29
2023-07-07T03:39:08.795Z,98882.98
2023-07-07T03:41:36.612Z,98882.30
2023-07-07T03:44:04.670Z,98882.49
2023-07-07T03:46:32.363Z,98884.95
2023-07-07T03:49:00.347Z,98884.97
2023-07-07T03:51:30.052Z,98883.77
2023-07-07T03:53:57.888Z,98891.02
2023-07-07T03:56:27.815Z,98892.31
2023-07-07T03:58:55.633Z,98890.78
2023-07-07T04:01:23.440Z,98889.23
2023-07-07T04:03:51.273Z,98890.32
2023-07-07T04:06:19.324Z,98891.23
2023-07-07T04:08:47.074Z,98887.75
2023-07-07T04:11:17.063Z,98889.36
2023-07-07T04:13:48.212Z,98893.12
2023-07-07T04:16:17.968Z,98892.52
2023-07-07T04:18:45.938Z,98892.40
2023-07-07T04:21:19.731Z,98889.48
2023-07-07T04:23:48.690Z,98892.14
2023-07-07T04:26:17.398Z,98894.45
2023-07-07T04:28:45.114Z,98896.95
2023-07-07T04:31:13.180Z,98891.38
2023-07-07T04:33:41.441Z,98895.27
2023-07-07T04:36:10.294Z,98895.35
2023-07-07T04:38:38.007Z,98897.15
2023-07-07T04:41:07.663Z,98896.50
2023-07-07T04:43:35.818Z,98897.41
2023-07-07T04:46:03.841Z,98895.52
2023-07-07T04:48:32.256Z,98897.84
2023-07-07T04:51:04.209Z,98896.27
2023-07-07T04:53:35.282Z,98896.98
2023-07-07T04:56:07.372Z,98899.09
2023-07-07T04:58:35.273Z,98898.05
2023-07-07T05:01:06.046Z,98902.77
2023-07-07T05:03:34.971Z,98899.42
2023-07-07T05:06:04.442Z,98900.80
2023-07-07T05:08:36.790Z,98903.42
2023-07-07T05:11:05.036Z,98906.07
2023-07-07T05:13:33.233Z,98907.48
2023-07-07T05:16:07.037Z,98908.16
2023-07-07T05:18:34.746Z,98909.20
2023-07-07T05:21:06.092Z,98906.16
2023-07-07T05:23:35.756Z,98903.65
2023-07-07T05:26:03.793Z,98908.17
2023-07-07T05:28:31.635Z,98913.27
2023-07-07T05:30:59.762Z,98913.23
2023-07-07T05:33:28.998Z,98911.79
2023-07-07T05:35:57.856Z,98909.82
2023-07-07T05:38:26.130Z,98910.48
2023-07-07T05:40:54.276Z,98910.63
2023-07-07T05:43:22.839Z,98914.47
2023-07-07T05:46:06.066Z,98919.02
2023-07-07T05:48:33.781Z,98921.58
2023-07-07T05:51:02.622Z,98921.65
2023-07-07T05:53:30.639Z,98925.95
2023-07-07T05:56:10.737Z,98927.45
2023-07-07T05:58:42.428Z,98932.30
2023-07-07T06:01:15.089Z,98937.16
2023-07-07T06:03:44.456Z,98937.41
2023-07-07T06:06:12.763Z,98934.67
2023-07-07T06:08:41.361Z,98940.05
2023-07-07T06:11:09.323Z,98944.55
2023-07-07T06:13:37.290Z,98952.02
2023-07-07T06:16:06.669Z,98950.92
2023-07-07T06:18:34.452Z,98951.56
2023-07-07T06:21:03.157Z,98953.77
2023-07-07T06:23:31.996Z,98953.03
2023-07-07T06:25:59.774Z,98958.85
2023-07-07T06:28:27.988Z,98963.98
2023-07-07T06:30:55.805Z,98967.52
2023-07-07T06:33:23.739Z,98968.27
2023-07-07T06:35:52.193Z,98962.67
2023-07-07T06:38:20.003Z,98969.11
2023-07-07T06:40:48.760Z,98967.80
2023-07-07T06:43:20.206Z,98968.43
2023-07-07T06:45:54.929Z,98976.50
2023-07-07T06:48:22.764Z,98970.59
2023-07-07T06:50:50.643Z,98972.83
2023-07-07T06:53:18.338Z,98974.74
2023-07-07T06:55:46.303Z,98973.98
2023-07-07T06:58:14.407Z,98976.83
2023-07-07T07:00:42.820Z,98975.20
2023-07-07T07:03:10.857Z,98980.64
2023-07-07T07:05:39.539Z,98978.80
2023-07-07T07:08:07.254Z,98974.64
2023-07-07T07:10:35.212Z,98976.86
2023-07-07T07:13:02.949Z,98974.84
2023-07-07T07:15:31.365Z,98972.98
2023-07-07T07:17:59.402Z,98972.56
2023-07-07T07:20:27.124Z,98976.20
2023-07-07T07:22:54.809Z,98976.63
2023-07-07T07:25:22.493Z,98975.83
2023-07-07T07:27:50.293Z,98976.23
2023-07-07T07:30:17.971Z,98978.23
2023-07-07T07:32:45.697Z,98975.11
2023-07-07T07:35:13.693Z,98972.45
2023-07-07T07:37:41.472Z,98977.23
2023-07-07T07:40:09.942Z,98980.10
2023-07-07T07:42:37.629Z,98984.52
2023-07-07T07:45:05.963Z,98980.63
2023-07-07T07:47:35.129Z,98977.40
2023-07-07T07:50:03.229Z,98980.42
2023-07-07T07:52:30.867Z,98985.02
2023-07-07T07:54:58.635Z,98983.59
2023-07-07T07:57:26.245Z,98984.06
2023-07-07T07:59:53.914Z,98981.55
2023-07-07T08:02:21.752Z,98986.86
2023-07-07T08:04:49.473Z,98990.95
2023-07-07T08:07:17.378Z,98994.45
2023-07-07T08:09:45.223Z,98990.11
2023-07-07T08:12:12.842Z,98986.61
2023-07-07T08:14:40.666Z,98986.30
2023-07-07T08:17:09.887Z,98987.16
2023-07-07T08:19:38.829Z,98988.83
2023-07-07T08:22:12.340Z,98987.84
2023-07-07T08:24:41.876Z,98987.64
2023-07-07T08:29:40.271Z,98982.66
2023-07-07T08:32:11.982Z,98982.31
2023-07-07T08:34:53.800Z,98984.69
2023-07-07T08:37:24.028Z,98979.55
2023-07-07T08:39:51.765Z,98983.17
2023-07-07T08:42:37.171Z,98985.33
2023-07-07T08:45:16.071Z,98985.16
2023-07-07T08:47:47.267Z,98987.48
2023-07-07T08:50:31.229Z,98986.16
2023-07-07T08:53:17.762Z,98990.45
2023-07-07T08:55:48.248Z,98989.61
2023-07-07T08:58:54.038Z,98994.02
2023-07-07T09:01:36.823Z,98997.12
2023-07-07T09:04:29.282Z,99002.20
2023-07-07T09:07:09.271Z,99000.56
2023-07-07T09:09:46.849Z,98998.69
2023-07-07T09:12:44.218Z,98999.23
2023-07-07T09:15:21.427Z,98993.33
2023-07-07T09:17:55.814Z,98996.59
2023-07-07T09:20:23.929Z,98996.25
2023-07-07T09:23:03.904Z,98998.34
2023-07-07T09:25:49.123Z,98999.24
2023-07-07T09:28:18.048Z,98998.48
2023-07-07T09:30:59.832Z,99003.88
2023-07-07T09:33:27.753Z,99002.94
2023-07-07T09:36:12.808Z,99004.11
2023-07-07T09:38:56.016Z,99006.22
2023-07-07T09:42:19.304Z,99011.10
2023-07-07T09:45:44.552Z,99007.85
2023-07-07T09:48:36.368Z,99004.95
2023-07-07T09:51:19.739Z,99007.26
2023-07-07T09:53:48.049Z,99008.77
2023-07-07T09:56:22.355Z,99002.66
2023-07-07T09:59:12.023Z,98999.45
2023-07-07T10:01:46.054Z,99002.23
2023-07-07T10:04:16.500Z,99005.92
2023-07-07T10:06:50.941Z,99007.13
2023-07-07T10:09:18.764Z,99002.06
2023-07-07T10:14:17.923Z,99008.31
2023-07-07T10:17:10.848Z,99008.45
2023-07-07T10:19:45.867Z,99016.56
2023-07-07T10:22:14.610Z,99011.20
2023-07-07T10:24:45.364Z,99006.45
2023-07-07T10:27:15.113Z,99003.77
2023-07-07T10:29:43.971Z,98999.90
2023-07-07T10:32:16.272Z,98998.92
2023-07-07T10:34:48.340Z,98996.31
2023-07-07T10:37:20.735Z,98999.42
2023-07-07T10:39:56.648Z,99004.05
2023-07-07T10:42:25.430Z,99000.03
2023-07-07T10:44:58.210Z,99001.79
2023-07-07T10:47:36.224Z,99006.66
2023-07-07T10:50:05.955Z,99007.09
2023-07-07T10:56:02.028Z,99009.89
2023-07-07T10:58:38.996Z,99008.16
2023-07-07T11:01:21.702Z,99005.00
2023-07-07T11:04:08.088Z,99004.05
2023-07-07T11:06:42.137Z,99006.88
2023-07-07T11:09:27.001Z,99004.95
2023-07-07T11:12:06.768Z,99004.77
2023-07-07T11:14:59.810Z,99006.70
2023-07-07T11:17:46.201Z,99010.48
2023-07-07T11:20:41.775Z,99007.69
2023-07-07T11:23:44.609Z,99010.59
2023-07-07T11:26:28.116Z,99007.91
2023-07-07T11:29:16.953Z,99005.94
2023-07-07T11:31:51.880Z,98999.60
2023-07-07T11:34:54.174Z,98998.00
2023-07-07T11:37:57.145Z,98994.19
2023-07-07T11:40:43.763Z,98989.70
2023-07-07T11:43:43.978Z,98982.22
2023-07-07T11:46:17.133Z,98978.38
2023-07-07T11:48:51.443Z,98975.98
2023-07-07T11:51:47.011Z,98975.23
2023-07-07T11:54:22.712Z,98971.47
2023-07-07T11:57:18.257Z,98971.32
2023-07-07T12:00:19.571Z,98971.46
2023-07-07T12:03:02.971Z,98973.33
2023-07-07T12:05:33.976Z,98973.09
2023-07-07T12:08:10.557Z,98972.40
2023-07-07T12:10:47.908Z,98974.15
2023-07-07T12:13:24.374Z,98971.05
2023-07-07T12:16:00.494Z,98972.20
2023-07-07T12:18:35.451Z,98973.60
2023-07-07T12:21:11.482Z,98969.52
2023-07-07T12:23:39.440Z,98966.96
2023-07-07T12:26:25.699Z,98966.52
2023-07-07T12:28:56.202Z,98966.48
2023-07-07T12:31:24.677Z,98970.48
2023-07-07T12:33:53.041Z,98969.77
2023-07-07T12:36:21.660Z,98961.83
2023-07-07T12:38:50.693Z,98959.02
2023-07-07T12:41:22.427Z,98955.15
2023-07-07T12:43:52.180Z,98953.02
2023-07-07T12:46:23.876Z,98948.02
2023-07-07T12:48:55.862Z,98948.71
2023-07-07T12:51:25.283Z,98949.30
2023-07-07T12:53:54.168Z,98950.70
2023-07-07T12:56:24.119Z,98942.84
2023-07-07T12:58:59.062Z,98936.64
2023-07-07T13:01:35.355Z,98936.42
2023-07-07T13:04:06.044Z,98937.86
2023-07-07T13:06:38.104Z,98936.84
2023-07-07T13:09:14.935Z,98930.17
2023-07-07T13:11:49.029Z,98931.55
2023-07-07T13:14:40.568Z,98929.95
2023-07-07T13:17:13.054Z,98928.36
2023-07-07T13:19:44.785Z,98928.69
2023-07-07T13:22:13.365Z,98932.48
2023-07-07T13:24:42.937Z,98941.11
2023-07-07T13:27:20.121Z,98946.30
2023-07-07T13:29:47.884Z,98945.29
2023-07-07T13:32:26.449Z,98938.44
2023-07-07T13:34:54.502Z,98940.25
2023-07-07T13:37:22.127Z,98938.49
2023-07-07T13:39:49.790Z,98933.75
2023-07-07T13:42:26.279Z,98934.61
2023-07-07T13:44:58.570Z,98929.14
2023-07-07T13:47:27.358Z,98929.72
2023-07-07T13:49:58.590Z,98927.23
2023-07-07T13:52:27.989Z,98921.77
2023-07-07T13:54:57.105Z,98925.62
2023-07-07T13:57:35.602Z,98923.79
2023-07-07T14:00:03.701Z,98929.48
2023-07-07T14:02:31.508Z,98930.12
2023-07-07T14:05:06.055Z,98924.38
2023-07-07T14:07:37.507Z,98922.23
2023-07-07T14:10:23.734Z,98925.59
2023-07-07T14:12:51.464Z,98926.13
2023-07-07T14:15:19.432Z,98924.41
2023-07-07T14:20:20.214Z,98920.86
2023-07-07T14:22:48.112Z,98918.63
2023-07-07T14:25:17.535Z,98918.27
2023-07-07T14:27:45.132Z,98919.81
2023-07-07T14:30:24.247Z,98920.06
2023-07-07T14:32:55.438Z,98918.58
2023-07-07T14:35:32.184Z,98915.44
2023-07-07T14:38:15.814Z,98913.92
2023-07-07T14:40:45.126Z,98911.94
2023-07-07T14:43:24.069Z,98908.95
2023-07-07T14:45:54.541Z,98911.69
2023-07-07T14:48:23.295Z,98911.35
2023-07-07T14:50:51.351Z,98913.09
2023-07-07T14:53:23.500Z,98907.23
2023-07-07T14:55:52.756Z,98903.04
2023-07-07T14:58:24.707Z,98901.91
2023-07-07T15:00:53.641Z,98895.37
2023-07-07T15:03:27.500Z,98893.10
2023-07-07T15:06:08.294Z,98888.39
2023-07-07T15:08:37.281Z,98887.77
2023-07-07T15:11:07.145Z,98889.73
2023-07-07T15:13:34.888Z,98887.70
2023-07-07T15:16:03.743Z,98891.80
2023-07-07T15:18:31.391Z,98892.30
2023-07-07T15:20:59.082Z,98892.23
2023-07-07T15:23:26.858Z,98895.36
2023-07-07T15:25:54.475Z,98892.04
2023-07-07T15:28:22.080Z,98891.75
2023-07-07T15:30:49.991Z,98889.98
2023-07-07T15:33:18.270Z,98884.36
2023-07-07T15:35:46.012Z,98891.80
2023-07-07T15:38:25.896Z,98892.43
2023-07-07T15:40:53.649Z,98895.27
2023-07-07T15:43:22.516Z,98896.84
2023-07-07T15:45:54.619Z,98897.75
2023-07-07T15:48:23.327Z,98899.22
2023-07-07T15:50:51.161Z,98898.41
2023-07-07T15:53:18.978Z,98899.36
2023-07-07T15:55:46.609Z,98896.80
2023-07-07T15:58:14.270Z,98894.09
2023-07-07T16:00:43.170Z,98891.55
2023-07-07T16:03:10.924Z,98892.84
2023-07-07T16:05:38.788Z,98886.41
2023-07-07T16:08:12.824Z,98884.88
2023-07-07T16:10:40.521Z,98880.16
2023-07-07T16:13:08.197Z,98882.48
2023-07-07T16:15:36.074Z,98886.10
2023-07-07T16:18:04.117Z,98887.93
2023-07-07T16:20:31.773Z,98887.05
2023-07-07T16:22:59.931Z,98880.83
2023-07-07T16:25:28.204Z,98883.27
2023-07-07T16:27:56.619Z,98880.55
2023-07-07T16:30:33.402Z,98881.80
2023-07-07T16:33:01.188Z,98878.67
2023-07-07T16:35:29.142Z,98872.02
2023-07-07T16:37:56.969Z,98872.48
2023-07-07T16:40:31.222Z,98875.83
2023-07-07T16:43:03.786Z,98873.91
2023-07-07T16:45:32.202Z,98877.67
2023-07-07T16:47:59.880Z,98878.89
2023-07-07T16:50:28.336Z,98878.13
2023-07-07T16:52:59.807Z,98882.61
2023-07-07T16:55:27.728Z,98883.23
2023-07-07T16:57:55.372Z,98885.81
2023-07-07T17:00:24.801Z,98886.61
2023-07-07T17:02:53.200Z,98890.35
2023-07-07T17:05:23.189Z,98885.55
2023-07-07T17:07:50.991Z,98886.48
2023-07-07T17:10:38.914Z,98892.83
2023-07-07T17:13:06.786Z,98891.80
2023-07-07T17:15:34.551Z,98895.98
2023-07-07T17:18:04.891Z,98899.46
2023-07-07T17:20:34.208Z,98891.14
2023-07-07T17:23:02.048Z,98883.59
2023-07-07T17:25:31.006Z,98887.10
2023-07-07T17:27:58.679Z,98888.40
2023-07-07T17:30:32.102Z,98892.98
2023-07-07T17:32:59.993Z,98889.59
2023-07-07T17:35:27.820Z,98893.30
2023-07-07T17:37:55.474Z,98896.72
2023-07-07T17:40:37.918Z,98895.10
2023-07-07T17:43:05.602Z,98897.12
2023-07-07T17:45:33.526Z,98896.10
2023-07-07T17:48:01.303Z,98898.40
2023-07-07T17:50:45.140Z,98903.58
2023-07-07T17:53:12.759Z,98909.23
2023-07-07T17:55:40.885Z,98907.91
2023-07-07T17:58:12.454Z,98911.05
2023-07-07T18:00:41.294Z,98910.21
2023-07-07T18:03:09.246Z,98909.11
2023-07-07T18:05:37.028Z,98915.14
2023-07-07T18:08:09.162Z,98907.67
2023-07-07T18:10:36.819Z,98909.95
2023-07-07T18:13:04.478Z,98911.20
2023-07-07T18:15:32.140Z,98911.41
2023-07-07T18:18:22.837Z,98913.04
2023-07-07T18:21:23.296Z,98912.60
2023-07-07T18:23:35.802Z,98912.23
2023-07-07T18:26:03.556Z,98910.80
2023-07-07T18:28:31.264Z,98910.31
2023-07-07T18:30:59.467Z,98913.43
2023-07-07T18:33:27.703Z,98911.42
2023-07-07T18:35:55.469Z,98911.63
2023-07-07T18:38:23.290Z,98914.45
2023-07-07T18:40:51.284Z,98920.02
2023-07-07T18:43:19.897Z,98924.92
2023-07-07T18:45:47.618Z,98924.52
2023-07-07T18:48:15.839Z,98926.83
2023-07-07T18:50:43.824Z,98931.98
2023-07-07T18:53:11.745Z,98928.30
2023-07-07T18:55:46.286Z,98932.77
2023-07-07T18:58:13.941Z,98934.27
2023-07-07T19:00:42.662Z,98935.85
2023-07-07T19:03:13.025Z,98934.91
2023-07-07T19:05:41.028Z,98933.50
2023-07-07T19:08:12.567Z,98935.86
2023-07-07T19:10:41.464Z,98934.95
2023-07-07T19:13:22.439Z,98937.17
2023-07-07T19:15:52.833Z,98938.48
2023-07-07T19:18:29.701Z,98938.61
2023-07-07T19:20:57.631Z,98944.05
2023-07-07T19:23:25.273Z,98943.37
2023-07-07T19:25:52.936Z,98941.04
2023-07-07T19:28:31.420Z,98942.64
2023-07-07T19:30:59.350Z,98941.85
2023-07-07T19:33:27.065Z,98945.86
2023-07-07T19:35:58.134Z,98945.44
2023-07-07T19:38:26.937Z,98939.51
2023-07-07T19:40:59.335Z,98938.14
2023-07-07T19:43:26.995Z,98942.11
2023-07-07T19:45:58.363Z,98943.02
2023-07-07T19:48:26.442Z,98942.36
2023-07-07T19:50:56.505Z,98940.75
2023-07-07T19:53:24.182Z,98944.30
2023-07-07T19:55:56.536Z,98943.89
2023-07-07T19:58:27.445Z,98941.46
2023-07-07T20:00:55.063Z,98937.82
2023-07-07T20:03:23.825Z,98940.02
2023-07-07T20:05:51.583Z,98939.90
2023-07-07T20:08:19.205Z,98941.04
2023-07-07T20:10:46.856Z,98945.48
2023-07-07T20:13:14.763Z,98946.77
2023-07-07T20:15:42.668Z,98948.71
2023-07-07T20:18:12.489Z,98952.08
2023-07-07T20:20:40.146Z,98957.02
2023-07-07T20:23:13.304Z,98955.95
2023-07-07T20:25:41.272Z,98956.63
2023-07-07T20:28:18.051Z,98953.60
2023-07-07T20:30:45.837Z,98959.62
2023-07-07T20:33:14.073Z,98957.80
2023-07-07T20:35:41.803Z,98961.66
2023-07-07T20:38:11.387Z,98963.71
2023-07-07T20:40:40.298Z,98965.40
2023-07-07T20:43:09.106Z,98970.30
2023-07-07T20:45:37.481Z,98967.40
2023-07-07T20:48:11.305Z,98971.23
2023-07-07T20:50:39.122Z,98974.19
2023-07-07T20:53:08.739Z,98978.87
2023-07-07T20:55:36.412Z,98976.14
2023-07-07T20:58:09.585Z,98982.41
2023-07-07T21:00:37.864Z,98990.27
2023-07-07T21:03:05.629Z,98988.77
2023-07-07T21:05:33.715Z,98994.86
2023-07-07T21:08:01.322Z,98992.08
2023-07-07T21:10:33.715Z,98994.79
2023-07-07T21:13:01.328Z,98997.52
2023-07-07T21:15:29.005Z,99001.45
2023-07-07T21:17:56.665Z,99003.61
2023-07-07T21:20:35.448Z,99003.98
2023-07-07T21:23:04.496Z,99004.51
2023-07-07T21:25:33.036Z,99004.55
2023-07-07T21:28:01.191Z,99005.13
2023-07-07T21:30:29.002Z,99007.99
2023-07-07T21:32:56.721Z,99007.16
2023-07-07T21:35:24.700Z,99007.91
2023-07-07T21:37:52.383Z,99007.95
2023-07-07T21:40:21.782Z,99008.71
2023-07-07T21:42:49.747Z,99009.11
2023-07-07T21:45:20.118Z,99015.33
2023-07-07T21:47:55.251Z,99014.82
2023-07-07T21:50:24.374Z,99016.25
2023-07-07T21:52:52.861Z,99015.75
2023-07-07T21:55:21.198Z,99014.73
2023-07-07T21:57:49.991Z,99016.70
2023-07-07T22:00:26.434Z,99017.27
2023-07-07T22:02:57.780Z,99013.77
2023-07-07T22:05:27.512Z,99015.38
2023-07-07T22:07:55.425Z,99018.91
2023-07-07T22:10:42.052Z,99019.27
2023-07-07T22:13:09.895Z,99019.11
2023-07-07T22:15:38.892Z,99016.64
2023-07-07T22:18:17.207Z,99011.19
2023-07-07T22:21:05.229Z,99013.66
2023-07-07T22:23:33.353Z,99009.81
2023-07-07T22:26:01.291Z,99012.45
2023-07-07T22:28:30.881Z,99013.88
2023-07-07T22:30:59.661Z,99010.36
2023-07-07T22:33:28.354Z,99013.73
2023-07-07T22:35:56.331Z,99011.58
2023-07-07T22:38:27.639Z,99013.00
2023-07-07T22:40:56.952Z,99012.83
2023-07-07T22:43:25.076Z,99009.64
2023-07-07T22:46:00.105Z,99014.92
2023-07-07T22:48:27.739Z,99014.73
2023-07-07T22:50:55.342Z,99016.68
2023-07-07T22:53:22.959Z,99012.99
2023-07-07T22:55:50.587Z,99011.22
2023-07-07T22:58:19.854Z,99013.86
2023-07-07T23:00:47.850Z,99010.70
2023-07-07T23:03:15.855Z,99009.63
2023-07-07T23:05:44.366Z,99010.69
2023-07-07T23:08:30.254Z,99009.80
2023-07-07T23:10:58.032Z,99014.19
2023-07-07T23:13:26.473Z,99011.89
2023-07-07T23:15:54.109Z,99016.45
2023-07-07T23:18:23.941Z,99010.28
2023-07-07T23:20:51.550Z,99008.68
2023-07-07T23:23:22.747Z,99008.48
2023-07-07T23:25:58.839Z,99006.89
2023-07-07T23:28:29.263Z,99008.13
2023-07-07T23:31:05.349Z,99006.37
2023-07-07T23:33:34.665Z,99003.55
2023-07-07T23:36:03.935Z,99003.89
2023-07-07T23:38:31.586Z,98997.00
2023-07-07T23:40:59.787Z,98998.56
2023-07-07T23:43:27.607Z,99002.56
2023-07-07T23:45:55.207Z,99000.96
2023-07-07T23:48:22.950Z,99001.65
2023-07-07T23:50:53.458Z,98999.33
2023-07-07T23:53:21.872Z,98997.73
2023-07-07T23:55:50.142Z,98997.02
2023-07-07T23:58:25.224Z,99000.70
